Time;durP1;ratioP1;P1;durP2;ratioP2;P2;SDS_P1;SDS_P2;PMS_P1;PMS_P2;Temp;Humidity;BMP_temperature;BMP_pressure;BME280_temperature;BME280_humidity;BME280_pressure;Samples;Min_cycle;Max_cycle;Signal;HPM_P1;HPM_P2
2021/06/30 00:01:45;;;;;;;51.30;12.90;;;;;;;;;;5108674;27;20387;-76
2021/06/30 00:04:22;;;;;;;52.72;13.02;;;;;;;;;;5068153;28;20394;-76
2021/06/30 00:07:00;;;;;;;54.03;13.18;;;;;;;;;;5067770;28;20391;-76
2021/06/30 00:09:40;;;;;;;61.42;12.45;;;;;;;;;;5067810;28;20440;-77
2021/06/30 00:12:17;;;;;;;54.65;13.05;;;;;;;;;;5129123;27;20131;-77
2021/06/30 00:14:56;;;;;;;55.95;13.05;;;;;;;;;;5068179;28;20386;-76
2021/06/30 00:17:33;;;;;;;54.55;12.55;;;;;;;;;;5068085;28;20383;-76
2021/06/30 00:20:12;;;;;;;54.60;13.10;;;;;;;;;;5068109;28;20827;-78
2021/06/30 00:22:49;;;;;;;53.53;12.55;;;;;;;;;;5068099;28;20382;-76
2021/06/30 00:25:28;;;;;;;55.22;12.73;;;;;;;;;;5108690;27;20376;-76
2021/06/30 00:28:06;;;;;;;47.08;12.57;;;;;;;;;;5067787;28;20917;-76
2021/06/30 00:30:45;;;;;;;45.17;12.18;;;;;;;;;;5170567;27;20130;-76
2021/06/30 00:33:22;;;;;;;52.85;13.63;;;;;;;;;;5108721;27;20937;-76
2021/06/30 00:36:00;;;;;;;50.28;12.93;;;;;;;;;;5068155;28;20387;-76
2021/06/30 00:38:39;;;;;;;51.50;11.75;;;;;;;;;;5068078;28;20386;-76
2021/06/30 00:41:20;;;;;;;51.17;12.93;;;;;;;;;;5067838;28;20440;-76
2021/06/30 00:43:58;;;;;;;50.60;12.20;;;;;;;;;;5129222;27;20473;-76
2021/06/30 00:46:37;;;;;;;40.30;12.05;;;;;;;;;;5106291;27;1330105;-76
2021/06/30 00:49:15;;;;;;;50.28;12.68;;;;;;;;;;5067822;28;20393;-77
2021/06/30 00:51:53;;;;;;;52.88;12.90;;;;;;;;;;5068179;28;20394;-76
2021/06/30 00:54:31;;;;;;;51.25;12.70;;;;;;;;;;5068033;28;20452;-76
2021/06/30 00:57:10;;;;;;;54.65;12.70;;;;;;;;;;5067871;28;20382;-76
2021/06/30 00:59:47;;;;;;;46.83;12.43;;;;;;;;;;5067925;28;20395;-76
2021/06/30 01:02:24;;;;;;;45.95;12.98;;;;;;;;;;5106508;27;1331925;-76
2021/06/30 01:05:03;;;;;;;42.65;13.13;;;;;;;;;;5110822;27;20391;-76
2021/06/30 01:07:41;;;;;;;46.25;12.70;;;;;;;;;;5068041;28;20501;-76
2021/06/30 01:10:19;;;;;;;49.03;13.13;;;;;;;;;;5128957;27;20567;-76
2021/06/30 01:12:57;;;;;;;43.47;13.38;;;;;;;;;;5068111;28;20387;-76
2021/06/30 01:15:46;;;;;;;55.33;13.68;;;;;;;;;;5067955;28;20448;-76
2021/06/30 01:18:24;;;;;;;46.40;12.52;;;;;;;;;;5128999;27;20333;-76
2021/06/30 01:21:03;;;;;;;43.35;11.93;;;;;;;;;;5067930;28;20909;-76
2021/06/30 01:23:41;;;;;;;47.30;13.32;;;;;;;;;;5068226;28;20450;-77
2021/06/30 01:26:19;;;;;;;40.05;13.15;;;;;;;;;;5068064;28;20442;-76
2021/06/30 01:28:58;;;;;;;51.45;12.48;;;;;;;;;;5068025;28;20383;-76
2021/06/30 01:31:36;;;;;;;43.17;12.20;;;;;;;;;;5129184;27;20382;-77
2021/06/30 01:34:14;;;;;;;56.83;12.75;;;;;;;;;;5068111;28;20391;-76
2021/06/30 01:36:56;;;;;;;54.28;12.82;;;;;;;;;;5067850;28;20391;-76
2021/06/30 01:39:33;;;;;;;44.95;12.25;;;;;;;;;;5068095;28;20391;-76
2021/06/30 01:42:14;;;;;;;55.63;13.85;;;;;;;;;;5108502;27;20777;-76
2021/06/30 01:44:51;;;;;;;45.22;12.45;;;;;;;;;;5088271;28;20411;-76
2021/06/30 01:47:30;;;;;;;56.03;12.48;;;;;;;;;;5067929;28;20901;-76
2021/06/30 01:50:08;;;;;;;45.47;12.40;;;;;;;;;;5067946;28;20507;-76
2021/06/30 01:52:47;;;;;;;44.88;12.40;;;;;;;;;;5068146;28;20394;-76
2021/06/30 01:55:24;;;;;;;43.70;11.75;;;;;;;;;;5068085;28;20386;-76
2021/06/30 01:58:04;;;;;;;55.28;12.73;;;;;;;;;;5067794;28;20445;-76
2021/06/30 02:00:42;;;;;;;38.95;10.60;;;;;;;;;;5068057;28;20913;-76
2021/06/30 02:03:20;;;;;;;37.92;11.82;;;;;;;;;;5067996;28;20387;-76
2021/06/30 02:05:58;;;;;;;43.28;10.57;;;;;;;;;;5068148;28;20390;-76
2021/06/30 02:08:38;;;;;;;50.17;10.98;;;;;;;;;;5067960;28;20386;-76
2021/06/30 02:11:16;;;;;;;45.70;11.15;;;;;;;;;;5129142;27;20158;-76
2021/06/30 02:13:53;;;;;;;48.55;11.07;;;;;;;;;;5068081;28;20416;-76
2021/06/30 02:16:31;;;;;;;45.30;11.80;;;;;;;;;;5068808;27;20379;-76
2021/06/30 02:19:11;;;;;;;43.65;14.38;;;;;;;;;;5067836;28;20409;-76
2021/06/30 02:21:49;;;;;;;84.35;33.00;;;;;;;;;;5068136;28;21111;-76
2021/06/30 02:24:28;;;;;;;78.28;34.92;;;;;;;;;;5108595;27;20917;-76
2021/06/30 02:27:06;;;;;;;78.22;27.30;;;;;;;;;;5067959;28;20379;-76
2021/06/30 02:29:44;;;;;;;72.05;20.27;;;;;;;;;;5068177;28;20387;-77
2021/06/30 02:32:22;;;;;;;52.50;17.60;;;;;;;;;;5068189;28;20394;-76
2021/06/30 02:35:00;;;;;;;63.67;19.02;;;;;;;;;;5067953;28;20386;-76
2021/06/30 02:37:39;;;;;;;55.83;17.05;;;;;;;;;;5067910;28;20440;-76
2021/06/30 02:40:18;;;;;;;53.35;15.90;;;;;;;;;;5068178;28;20387;-76
2021/06/30 02:42:56;;;;;;;59.05;17.58;;;;;;;;;;5068150;28;20394;-76
2021/06/30 02:45:45;;;;;;;61.95;18.13;;;;;;;;;;5068069;28;20387;-77
2021/06/30 02:48:25;;;;;;;53.90;19.17;;;;;;;;;;5067958;28;20390;-76
2021/06/30 02:51:03;;;;;;;59.17;19.42;;;;;;;;;;5068193;28;20387;-76
2021/06/30 02:53:41;;;;;;;61.20;18.08;;;;;;;;;;5067982;28;20415;-76
2021/06/30 02:56:21;;;;;;;58.80;15.80;;;;;;;;;;5068045;28;20387;-76
2021/06/30 02:58:58;;;;;;;64.68;15.77;;;;;;;;;;5106029;27;1339587;-76
2021/06/30 03:01:36;;;;;;;49.95;14.85;;;;;;;;;;5068171;28;20390;-76
2021/06/30 03:04:14;;;;;;;49.47;14.27;;;;;;;;;;5068055;28;20391;-76
2021/06/30 03:06:53;;;;;;;59.17;18.35;;;;;;;;;;5067914;28;20387;-75
2021/06/30 03:09:31;;;;;;;64.50;18.75;;;;;;;;;;5108324;27;20575;-76
2021/06/30 03:12:09;;;;;;;52.40;15.75;;;;;;;;;;5067957;28;20395;-76
2021/06/30 03:14:47;;;;;;;57.58;18.55;;;;;;;;;;5068259;28;20613;-77
2021/06/30 03:17:25;;;;;;;52.03;12.18;;;;;;;;;;5068094;28;20746;-76
2021/06/30 03:20:05;;;;;;;51.67;12.95;;;;;;;;;;5068269;28;20920;-76
2021/06/30 03:22:44;;;;;;;58.33;14.57;;;;;;;;;;5108844;27;20395;-76
2021/06/30 03:25:21;;;;;;;51.80;12.05;;;;;;;;;;5068248;28;20398;-77
2021/06/30 03:27:59;;;;;;;48.67;13.48;;;;;;;;;;5088081;27;20385;-76
2021/06/30 03:30:38;;;;;;;48.10;13.05;;;;;;;;;;5068196;28;20398;-76
2021/06/30 03:33:16;;;;;;;47.92;12.70;;;;;;;;;;5068275;28;20383;-76
2021/06/30 03:35:54;;;;;;;43.58;13.07;;;;;;;;;;5068013;28;20387;-76
2021/06/30 03:38:33;;;;;;;47.63;13.38;;;;;;;;;;5068091;28;20382;-76
2021/06/30 03:41:10;;;;;;;54.97;12.05;;;;;;;;;;5108836;27;20794;-77
2021/06/30 03:43:49;;;;;;;52.83;14.10;;;;;;;;;;5068269;28;20913;-77
2021/06/30 03:46:27;;;;;;;44.25;15.55;;;;;;;;;;5067950;28;20383;-76
2021/06/30 03:49:05;;;;;;;80.40;29.00;;;;;;;;;;5068109;28;20813;-76
2021/06/30 03:51:43;;;;;;;113.78;44.08;;;;;;;;;;5068055;28;20387;-76
2021/06/30 03:54:24;;;;;;;103.60;42.60;;;;;;;;;;5088329;28;20421;-76
2021/06/30 03:57:03;;;;;;;82.10;29.25;;;;;;;;;;5108520;27;20410;-76
2021/06/30 03:59:41;;;;;;;67.60;19.05;;;;;;;;;;5068042;28;20383;-76
2021/06/30 04:02:19;;;;;;;61.63;17.20;;;;;;;;;;5068017;28;20387;-77
2021/06/30 04:04:58;;;;;;;45.85;14.50;;;;;;;;;;5068085;28;20391;-76
2021/06/30 04:07:37;;;;;;;65.68;18.00;;;;;;;;;;5108549;27;20387;-76
2021/06/30 04:10:13;;;;;;;62.47;17.47;;;;;;;;;;5080033;27;2045637;-76
2021/06/30 04:12:50;;;;;;;62.35;15.50;;;;;;;;;;5068075;28;20378;-76
2021/06/30 04:15:29;;;;;;;47.20;15.75;;;;;;;;;;5088326;28;20411;-76
2021/06/30 04:18:07;;;;;;;41.95;14.40;;;;;;;;;;5067994;28;20387;-77
2021/06/30 04:20:47;;;;;;;55.22;15.30;;;;;;;;;;5068170;28;20395;-76
2021/06/30 04:23:25;;;;;;;53.47;14.65;;;;;;;;;;5068023;28;20955;-76
2021/06/30 04:26:04;;;;;;;59.53;15.15;;;;;;;;;;5067923;28;20743;-76
2021/06/30 04:28:41;;;;;;;49.15;14.60;;;;;;;;;;5067942;28;20383;-77
2021/06/30 04:31:21;;;;;;;55.75;16.25;;;;;;;;;;5067978;28;20386;-76
2021/06/30 04:33:59;;;;;;;54.75;14.60;;;;;;;;;;5068086;28;20394;-77
2021/06/30 04:36:38;;;;;;;56.28;13.68;;;;;;;;;;5067719;28;20390;-76
2021/06/30 04:39:18;;;;;;;51.50;13.75;;;;;;;;;;5129187;27;20127;-77
2021/06/30 04:41:55;;;;;;;54.05;13.13;;;;;;;;;;5068178;28;20391;-76
2021/06/30 04:44:34;;;;;;;51.55;14.30;;;;;;;;;;5068094;28;20382;-77
2021/06/30 04:47:12;;;;;;;51.50;13.13;;;;;;;;;;5067828;28;20387;-76
2021/06/30 04:49:50;;;;;;;61.70;15.00;;;;;;;;;;5068007;28;20399;-75
2021/06/30 04:52:28;;;;;;;68.43;14.63;;;;;;;;;;5067972;28;20464;-76
2021/06/30 04:55:08;;;;;;;61.20;13.82;;;;;;;;;;5067892;28;20395;-76
2021/06/30 04:57:46;;;;;;;59.35;12.73;;;;;;;;;;5068116;28;20909;-76
2021/06/30 05:00:24;;;;;;;40.17;12.63;;;;;;;;;;5068610;28;20912;-77
2021/06/30 05:03:03;;;;;;;44.95;11.73;;;;;;;;;;5068180;28;20383;-76
2021/06/30 05:05:41;;;;;;;52.88;12.75;;;;;;;;;;5108661;27;20384;-76
2021/06/30 05:08:19;;;;;;;48.55;13.52;;;;;;;;;;5067868;28;20379;-77
2021/06/30 05:10:57;;;;;;;47.05;13.20;;;;;;;;;;5067798;28;20399;-76
2021/06/30 05:13:35;;;;;;;52.22;13.57;;;;;;;;;;5068047;28;20438;-76
2021/06/30 05:16:12;;;;;;;44.50;14.88;;;;;;;;;;5103403;27;1410969;-75
2021/06/30 05:18:51;;;;;;;57.40;15.27;;;;;;;;;;5068049;28;20390;-77
2021/06/30 05:21:29;;;;;;;58.58;14.05;;;;;;;;;;5068137;28;20379;-77
2021/06/30 05:24:07;;;;;;;66.82;14.27;;;;;;;;;;5067995;28;20386;-75
2021/06/30 05:26:45;;;;;;;49.53;13.35;;;;;;;;;;5068063;28;20379;-70
2021/06/30 05:29:23;;;;;;;48.17;12.23;;;;;;;;;;5068132;28;20402;-69
2021/06/30 05:32:01;;;;;;;57.22;14.05;;;;;;;;;;5067463;28;20383;-70
2021/06/30 05:34:39;;;;;;;47.78;13.05;;;;;;;;;;5067698;28;20383;-70
2021/06/30 05:37:18;;;;;;;53.00;13.00;;;;;;;;;;5068103;28;20392;-71
2021/06/30 05:39:56;;;;;;;55.00;13.65;;;;;;;;;;5068251;28;20394;-70
2021/06/30 05:42:34;;;;;;;53.90;13.98;;;;;;;;;;5068259;28;20386;-70
2021/06/30 05:45:16;;;;;;;59.78;11.82;;;;;;;;;;5068090;28;20403;-69
2021/06/30 05:47:54;;;;;;;50.97;11.63;;;;;;;;;;5108820;27;20384;-69
2021/06/30 05:50:35;;;;;;;52.45;12.30;;;;;;;;;;5108744;27;20388;-69
2021/06/30 05:53:13;;;;;;;65.20;13.60;;;;;;;;;;5068217;28;20390;-69
2021/06/30 05:55:52;;;;;;;56.35;11.27;;;;;;;;;;5068328;28;20398;-70
2021/06/30 05:58:30;;;;;;;57.08;13.27;;;;;;;;;;5088268;27;20382;-70
2021/06/30 06:01:09;;;;;;;62.67;12.55;;;;;;;;;;5108766;27;20392;-69
2021/06/30 06:03:52;;;;;;;57.05;12.20;;;;;;;;;;5067792;28;20378;-66
2021/06/30 06:06:30;;;;;;;46.53;10.38;;;;;;;;;;5108748;27;20529;-67
2021/06/30 06:09:08;;;;;;;55.28;11.25;;;;;;;;;;5149760;27;20134;-66
2021/06/30 06:11:46;;;;;;;49.42;11.02;;;;;;;;;;5067634;28;20383;-68
2021/06/30 06:14:24;;;;;;;49.97;10.65;;;;;;;;;;5067639;28;20387;-67
2021/06/30 06:17:02;;;;;;;53.33;11.30;;;;;;;;;;5068310;28;20391;-66
2021/06/30 06:19:40;;;;;;;49.40;11.65;;;;;;;;;;5068092;28;20463;-66
2021/06/30 06:22:18;;;;;;;52.65;10.25;;;;;;;;;;5068305;28;20390;-69
2021/06/30 06:24:57;;;;;;;54.45;11.57;;;;;;;;;;5069356;27;20391;-69
2021/06/30 06:27:37;;;;;;;55.28;11.43;;;;;;;;;;5068336;28;20406;-69
2021/06/30 06:30:15;;;;;;;56.25;12.05;;;;;;;;;;5068160;28;20917;-74
2021/06/30 06:32:53;;;;;;;63.05;12.82;;;;;;;;;;5068380;28;20910;-74
2021/06/30 06:35:31;;;;;;;51.83;12.43;;;;;;;;;;5108777;27;20380;-74
2021/06/30 06:38:10;;;;;;;55.25;11.43;;;;;;;;;;5068961;28;20390;-74
2021/06/30 06:40:47;;;;;;;58.95;11.27;;;;;;;;;;5068238;28;20387;-74
2021/06/30 06:43:26;;;;;;;58.05;12.50;;;;;;;;;;5068051;28;20391;-75
2021/06/30 06:46:04;;;;;;;48.33;10.52;;;;;;;;;;5108557;27;20384;-74
2021/06/30 06:48:42;;;;;;;47.45;11.48;;;;;;;;;;5108549;27;20388;-74
2021/06/30 06:51:20;;;;;;;49.17;10.68;;;;;;;;;;5068292;28;20386;-75
2021/06/30 06:53:58;;;;;;;50.22;10.63;;;;;;;;;;5108626;27;20396;-74
2021/06/30 06:56:37;;;;;;;42.90;9.80;;;;;;;;;;5068095;28;20391;-75
2021/06/30 06:59:15;;;;;;;46.95;10.45;;;;;;;;;;5067778;28;20391;-75
2021/06/30 07:01:53;;;;;;;52.75;11.48;;;;;;;;;;5108542;27;20387;-74
2021/06/30 07:04:31;;;;;;;54.05;11.00;;;;;;;;;;5068167;28;20393;-76
2021/06/30 07:07:13;;;;;;;55.78;12.30;;;;;;;;;;5108640;27;20766;-74
2021/06/30 07:09:51;;;;;;;57.47;12.80;;;;;;;;;;5068127;28;20393;-74
2021/06/30 07:12:29;;;;;;;64.38;10.85;;;;;;;;;;5129290;27;20390;-75
2021/06/30 07:15:08;;;;;;;60.83;12.07;;;;;;;;;;5067993;28;20749;-74
2021/06/30 07:17:45;;;;;;;52.88;11.85;;;;;;;;;;5068022;28;20401;-74
2021/06/30 07:20:24;;;;;;;68.93;12.57;;;;;;;;;;5108972;27;20926;-75
2021/06/30 07:23:02;;;;;;;58.90;11.93;;;;;;;;;;5108620;27;20381;-74
2021/06/30 07:25:40;;;;;;;55.00;11.98;;;;;;;;;;5067795;28;20382;-73
2021/06/30 07:28:22;;;;;;;46.87;11.77;;;;;;;;;;5107445;27;20475;-75
2021/06/30 07:31:00;;;;;;;65.75;12.90;;;;;;;;;;5068180;28;20383;-76
2021/06/30 07:33:40;;;;;;;55.08;11.00;;;;;;;;;;5068068;28;20391;-77
2021/06/30 07:36:18;;;;;;;60.95;12.00;;;;;;;;;;5068085;28;20390;-80
2021/06/30 07:38:57;;;;;;;55.75;10.45;;;;;;;;;;5088304;28;20778;-77
2021/06/30 07:41:36;;;;;;;53.25;11.38;;;;;;;;;;5108996;27;20906;-78
2021/06/30 07:44:14;;;;;;;47.95;10.82;;;;;;;;;;5108643;27;20380;-80
2021/06/30 07:46:52;;;;;;;54.67;12.30;;;;;;;;;;5108358;27;20407;-78
2021/06/30 07:49:30;;;;;;;54.25;11.98;;;;;;;;;;5068178;28;20387;-79
2021/06/30 07:52:11;;;;;;;63.22;12.75;;;;;;;;;;5068029;28;20440;-77
2021/06/30 07:54:50;;;;;;;46.25;12.18;;;;;;;;;;5068410;28;20425;-79
2021/06/30 07:57:28;;;;;;;69.97;14.15;;;;;;;;;;5068273;28;20386;-75
2021/06/30 08:00:07;;;;;;;52.65;12.50;;;;;;;;;;5067766;28;20399;-73
2021/06/30 08:02:50;;;;;;;74.55;14.63;;;;;;;;;;5068235;28;20391;-77
2021/06/30 08:05:28;;;;;;;65.85;15.13;;;;;;;;;;5129356;27;20131;-83
2021/06/30 08:08:06;;;;;;;71.65;19.67;;;;;;;;;;5068078;28;20440;-79
2021/06/30 08:10:44;;;;;;;55.75;16.30;;;;;;;;;;5108719;27;20376;-78
2021/06/30 08:13:22;;;;;;;65.28;16.65;;;;;;;;;;5068221;28;20398;-76
2021/06/30 08:16:00;;;;;;;52.10;15.57;;;;;;;;;;5067963;28;20801;-75
2021/06/30 08:18:38;;;;;;;59.60;15.93;;;;;;;;;;5068023;28;20805;-72
2021/06/30 08:21:17;;;;;;;64.80;15.52;;;;;;;;;;5108728;27;20383;-75
2021/06/30 08:23:55;;;;;;;55.72;15.68;;;;;;;;;;5068138;28;20391;-77
2021/06/30 08:26:33;;;;;;;55.47;13.90;;;;;;;;;;5108685;27;20384;-75
2021/06/30 08:29:11;;;;;;;57.35;12.82;;;;;;;;;;5068282;28;20395;-75
2021/06/30 08:31:49;;;;;;;61.60;14.27;;;;;;;;;;5068039;28;20382;-73
2021/06/30 08:34:28;;;;;;;57.60;13.02;;;;;;;;;;5150271;27;20377;-75
2021/06/30 08:37:06;;;;;;;57.47;13.63;;;;;;;;;;5068100;28;20391;-74
2021/06/30 08:39:44;;;;;;;66.00;13.77;;;;;;;;;;5068380;28;20398;-76
2021/06/30 08:42:22;;;;;;;65.25;13.90;;;;;;;;;;5067953;28;20394;-74
2021/06/30 08:45:01;;;;;;;59.22;12.55;;;;;;;;;;5108702;27;20388;-75
2021/06/30 08:47:40;;;;;;;63.05;12.48;;;;;;;;;;5048138;28;20388;-75
2021/06/30 08:50:17;;;;;;;59.88;13.38;;;;;;;;;;5068084;28;20387;-74
2021/06/30 08:52:56;;;;;;;49.78;11.50;;;;;;;;;;5068142;28;20395;-72
2021/06/30 08:55:34;;;;;;;61.55;12.25;;;;;;;;;;5068153;28;20437;-75
2021/06/30 08:58:13;;;;;;;52.70;12.00;;;;;;;;;;5067944;28;20912;-75
2021/06/30 09:00:51;;;;;;;65.03;13.25;;;;;;;;;;5068091;28;20387;-76
2021/06/30 09:03:30;;;;;;;69.90;11.02;;;;;;;;;;5129136;27;20357;-78
2021/06/30 09:06:12;;;;;;;41.53;10.20;;;;;;;;;;5068271;28;20390;-79
2021/06/30 09:08:49;;;;;;;47.50;10.02;;;;;;;;;;5068185;28;20378;-77
2021/06/30 09:11:30;;;;;;;59.75;10.55;;;;;;;;;;5067976;28;20417;-77
2021/06/30 09:14:12;;;;;;;49.95;10.02;;;;;;;;;;5108788;27;20384;-77
2021/06/30 09:16:55;;;;;;;55.63;10.32;;;;;;;;;;5068120;28;20386;-76
2021/06/30 09:19:47;;;;;;;46.80;10.77;;;;;;;;;;5068632;28;20395;-78
2021/06/30 09:22:26;;;;;;;45.90;9.35;;;;;;;;;;5068257;28;20391;-78
2021/06/30 09:25:04;;;;;;;46.15;9.25;;;;;;;;;;5068152;28;20391;-77
2021/06/30 09:27:44;;;;;;;39.40;8.55;;;;;;;;;;5108700;27;20391;-79
2021/06/30 09:30:22;;;;;;;37.72;8.82;;;;;;;;;;5068082;28;20390;-78
2021/06/30 09:33:03;;;;;;;48.65;9.95;;;;;;;;;;5108842;27;20384;-79
2021/06/30 09:35:42;;;;;;;48.97;8.60;;;;;;;;;;5088511;27;20922;-79
2021/06/30 09:38:28;;;;;;;33.65;8.75;;;;;;;;;;5067838;28;20387;-77
2021/06/30 09:41:06;;;;;;;41.75;9.15;;;;;;;;;;5128244;27;20386;-81
2021/06/30 09:43:44;;;;;;;55.35;9.75;;;;;;;;;;5068375;28;20390;-76
2021/06/30 09:46:23;;;;;;;48.28;9.80;;;;;;;;;;5067973;28;20375;-78
2021/06/30 09:49:02;;;;;;;45.58;9.50;;;;;;;;;;5068170;28;20391;-78
2021/06/30 09:51:42;;;;;;;46.42;8.77;;;;;;;;;;5108482;27;20399;-76
2021/06/30 09:54:20;;;;;;;45.67;10.02;;;;;;;;;;5108617;27;20387;-74
2021/06/30 09:57:00;;;;;;;54.97;10.48;;;;;;;;;;5067257;28;20379;-77
2021/06/30 09:59:44;;;;;;;45.72;9.80;;;;;;;;;;5067614;28;20897;-77
2021/06/30 10:02:23;;;;;;;53.65;9.95;;;;;;;;;;5067862;28;20770;-77
2021/06/30 10:05:05;;;;;;;59.00;10.80;;;;;;;;;;5068162;28;20429;-77
2021/06/30 10:07:43;;;;;;;48.30;9.38;;;;;;;;;;5067945;28;20391;-76
2021/06/30 10:10:21;;;;;;;43.20;9.35;;;;;;;;;;5068420;28;20387;-78
2021/06/30 10:13:01;;;;;;;57.00;11.13;;;;;;;;;;5068329;28;20382;-79
2021/06/30 10:15:40;;;;;;;50.92;10.48;;;;;;;;;;5068272;28;20412;-78
2021/06/30 10:18:18;;;;;;;50.55;9.77;;;;;;;;;;5068166;28;20394;-75
2021/06/30 10:20:57;;;;;;;43.70;8.13;;;;;;;;;;5129429;27;20386;-78
2021/06/30 10:23:36;;;;;;;44.05;9.07;;;;;;;;;;5108756;27;20381;-77
2021/06/30 10:26:15;;;;;;;53.33;9.77;;;;;;;;;;5068066;28;20387;-77
2021/06/30 10:28:54;;;;;;;49.65;9.68;;;;;;;;;;5068206;28;20391;-74
2021/06/30 10:31:35;;;;;;;45.83;9.18;;;;;;;;;;5068019;28;20390;-80
2021/06/30 10:34:14;;;;;;;41.55;9.05;;;;;;;;;;5068356;28;20391;-79
2021/06/30 10:36:54;;;;;;;42.08;8.73;;;;;;;;;;5066501;28;20925;-81
2021/06/30 10:39:35;;;;;;;39.67;9.13;;;;;;;;;;5067727;28;20440;-81
2021/06/30 10:42:29;;;;;;;39.08;9.70;;;;;;;;;;5067438;28;20441;-80
2021/06/30 10:45:14;;;;;;;36.53;8.63;;;;;;;;;;5108520;27;20953;-81
2021/06/30 10:47:55;;;;;;;47.70;9.07;;;;;;;;;;5068144;28;20395;-76
2021/06/30 10:50:57;;;;;;;42.83;8.25;;;;;;;;;;5068348;28;20399;-78
2021/06/30 10:53:36;;;;;;;59.72;9.88;;;;;;;;;;5068127;28;20394;-78
2021/06/30 10:56:14;;;;;;;50.17;10.95;;;;;;;;;;5068422;28;20382;-78
2021/06/30 10:59:03;;;;;;;45.97;8.35;;;;;;;;;;5068200;28;20387;-78
2021/06/30 11:02:03;;;;;;;46.15;9.05;;;;;;;;;;5068157;28;20387;-77
2021/06/30 11:04:41;;;;;;;53.67;8.88;;;;;;;;;;5067708;28;20059;-78
2021/06/30 11:07:32;;;;;;;44.55;9.25;;;;;;;;;;5108832;27;20913;-76
2021/06/30 11:10:16;;;;;;;49.00;8.40;;;;;;;;;;5107671;27;20391;-75
2021/06/30 11:12:54;;;;;;;43.60;8.45;;;;;;;;;;5068362;28;20391;-76
2021/06/30 11:15:38;;;;;;;54.60;9.48;;;;;;;;;;5067152;28;20444;-76
2021/06/30 11:18:19;;;;;;;36.33;8.15;;;;;;;;;;5068085;28;20602;-76
2021/06/30 11:21:03;;;;;;;48.72;8.90;;;;;;;;;;5068288;28;20924;-76
2021/06/30 11:23:43;;;;;;;40.33;8.60;;;;;;;;;;5088533;27;20389;-76
2021/06/30 11:26:35;;;;;;;36.30;8.25;;;;;;;;;;5108677;27;20384;-76
2021/06/30 11:29:36;;;;;;;50.78;7.88;;;;;;;;;;5088657;27;20389;-76
2021/06/30 11:32:38;;;;;;;45.45;8.43;;;;;;;;;;5129350;27;20134;-76
2021/06/30 11:35:25;;;;;;;38.13;8.80;;;;;;;;;;5068029;28;20378;-75
2021/06/30 11:38:10;;;;;;;44.58;8.77;;;;;;;;;;5068284;28;20873;-77
2021/06/30 11:43:30;;;;;;;50.05;9.65;;;;;;;;;;5108852;27;20380;-76
2021/06/30 11:46:08;;;;;;;48.38;9.35;;;;;;;;;;5068071;28;20413;-76
2021/06/30 11:48:52;;;;;;;52.08;10.07;;;;;;;;;;5068328;28;20452;-76
2021/06/30 11:51:30;;;;;;;56.95;10.00;;;;;;;;;;5068215;28;20751;-76
2021/06/30 11:54:15;;;;;;;55.50;9.38;;;;;;;;;;5068207;28;20913;-76
2021/06/30 11:56:53;;;;;;;40.60;10.05;;;;;;;;;;5068220;28;20390;-74
2021/06/30 11:59:36;;;;;;;36.92;7.88;;;;;;;;;;5068370;28;20797;-76
2021/06/30 12:02:13;;;;;;;40.78;8.00;;;;;;;;;;5068283;28;20387;-76
2021/06/30 12:04:53;;;;;;;53.10;9.07;;;;;;;;;;5129407;27;20409;-75
2021/06/30 12:07:41;;;;;;;41.08;7.55;;;;;;;;;;5070478;28;20929;-76
2021/06/30 12:10:20;;;;;;;53.38;10.50;;;;;;;;;;5069240;28;20398;-76
2021/06/30 12:13:01;;;;;;;35.83;7.40;;;;;;;;;;5068401;28;20413;-76
2021/06/30 12:15:46;;;;;;;61.17;8.35;;;;;;;;;;5068198;28;20391;-76
2021/06/30 12:18:24;;;;;;;40.90;8.43;;;;;;;;;;5068485;28;20947;-76
2021/06/30 12:21:03;;;;;;;52.13;9.27;;;;;;;;;;5068094;28;20381;-77
2021/06/30 12:23:41;;;;;;;32.65;7.97;;;;;;;;;;5068259;28;20925;-76
2021/06/30 12:26:19;;;;;;;30.95;8.15;;;;;;;;;;5068231;28;20390;-78
2021/06/30 12:28:57;;;;;;;47.72;8.20;;;;;;;;;;5068089;28;20394;-81
2021/06/30 12:31:35;;;;;;;34.08;7.40;;;;;;;;;;5066102;28;20379;-81
2021/06/30 12:34:16;;;;;;;40.22;7.88;;;;;;;;;;5066106;28;20609;-79
2021/06/30 12:36:53;;;;;;;39.40;8.48;;;;;;;;;;5068271;28;20458;-80
2021/06/30 12:39:33;;;;;;;48.55;8.65;;;;;;;;;;5068419;28;20937;-80
2021/06/30 12:42:10;;;;;;;27.38;7.05;;;;;;;;;;5068467;28;20905;-80
2021/06/30 12:45:06;;;;;;;39.08;9.05;;;;;;;;;;5088371;27;20385;-80
2021/06/30 12:47:54;;;;;;;46.47;8.93;;;;;;;;;;5068190;28;20383;-79
2021/06/30 12:50:33;;;;;;;27.25;8.02;;;;;;;;;;5068405;28;20399;-80
2021/06/30 12:53:13;;;;;;;31.92;8.20;;;;;;;;;;5068434;28;20509;-79
2021/06/30 12:56:00;;;;;;;39.92;8.93;;;;;;;;;;5068849;27;20390;-79
2021/06/30 12:58:45;;;;;;;37.67;8.73;;;;;;;;;;5129224;27;20481;-79
2021/06/30 13:01:31;;;;;;;44.78;7.60;;;;;;;;;;5068728;28;20940;-80
2021/06/30 13:04:13;;;;;;;47.38;9.23;;;;;;;;;;5068337;28;20901;-76
2021/06/30 13:06:53;;;;;;;57.33;9.98;;;;;;;;;;5068378;28;20390;-75
2021/06/30 13:09:34;;;;;;;42.47;8.70;;;;;;;;;;5109039;27;20399;-75
2021/06/30 13:12:20;;;;;;;50.33;9.73;;;;;;;;;;5069258;28;20386;-77
2021/06/30 13:14:57;;;;;;;48.60;9.57;;;;;;;;;;5108804;27;20411;-75
2021/06/30 13:17:35;;;;;;;53.30;9.35;;;;;;;;;;5068287;28;20917;-72
2021/06/30 13:20:14;;;;;;;63.97;10.65;;;;;;;;;;5068489;28;20387;-74
2021/06/30 13:22:52;;;;;;;54.70;8.77;;;;;;;;;;5109668;27;20510;-74
2021/06/30 13:25:39;;;;;;;46.10;9.73;;;;;;;;;;5067999;28;20417;-74
2021/06/30 13:28:41;;;;;;;41.25;7.78;;;;;;;;;;5067735;28;20948;-72
2021/06/30 13:34:43;;;;;;;49.33;9.50;;;;;;;;;;5068025;28;20391;-74
2021/06/30 13:37:20;;;;;;;46.33;8.88;;;;;;;;;;5105285;27;1344788;-76
2021/06/30 13:39:58;;;;;;;32.80;7.65;;;;;;;;;;5067578;28;20382;-75
2021/06/30 13:42:36;;;;;;;49.17;8.85;;;;;;;;;;5066957;28;20394;-75
2021/06/30 13:45:14;;;;;;;46.72;9.13;;;;;;;;;;5067786;28;20391;-75
2021/06/30 13:47:52;;;;;;;47.70;10.38;;;;;;;;;;5068183;28;20429;-75
2021/06/30 13:50:30;;;;;;;43.08;9.40;;;;;;;;;;5068233;28;20452;-75
2021/06/30 13:53:09;;;;;;;43.65;9.07;;;;;;;;;;5068159;28;20394;-75
2021/06/30 13:55:59;;;;;;;31.67;8.00;;;;;;;;;;5047918;28;20880;-74
2021/06/30 13:58:54;;;;;;;54.42;9.27;;;;;;;;;;5068112;28;20423;-75
2021/06/30 14:01:31;;;;;;;43.10;8.13;;;;;;;;;;5068020;28;20440;-75
2021/06/30 14:04:09;;;;;;;38.85;8.40;;;;;;;;;;5068217;28;20448;-75
2021/06/30 14:06:47;;;;;;;43.28;9.13;;;;;;;;;;5067909;28;20448;-75
2021/06/30 14:09:26;;;;;;;46.00;8.57;;;;;;;;;;5088214;27;20389;-75
2021/06/30 14:12:03;;;;;;;33.88;8.13;;;;;;;;;;5106653;27;1321886;-75
2021/06/30 14:14:40;;;;;;;46.90;8.80;;;;;;;;;;5068056;28;20390;-75
2021/06/30 14:17:19;;;;;;;39.13;8.27;;;;;;;;;;5067939;28;20393;-75
2021/06/30 14:19:57;;;;;;;44.53;8.35;;;;;;;;;;5068051;28;20440;-75
2021/06/30 14:22:36;;;;;;;39.95;8.90;;;;;;;;;;5067586;28;20395;-75
2021/06/30 14:25:16;;;;;;;54.15;9.02;;;;;;;;;;5067815;28;20520;-74
2021/06/30 14:27:54;;;;;;;51.10;8.43;;;;;;;;;;5067970;28;20375;-76
2021/06/30 14:30:31;;;;;;;47.92;8.70;;;;;;;;;;5067728;28;20405;-76
2021/06/30 14:33:09;;;;;;;43.15;9.27;;;;;;;;;;5108540;27;20439;-75
2021/06/30 14:35:48;;;;;;;49.85;8.82;;;;;;;;;;5067845;28;20394;-75
2021/06/30 14:38:26;;;;;;;47.08;8.95;;;;;;;;;;5068076;28;20391;-74
2021/06/30 14:41:04;;;;;;;48.10;8.82;;;;;;;;;;5067931;28;20394;-75
2021/06/30 14:43:42;;;;;;;38.55;7.85;;;;;;;;;;5067891;28;20405;-74
2021/06/30 14:46:20;;;;;;;51.63;8.88;;;;;;;;;;5067886;28;20390;-75
2021/06/30 14:48:59;;;;;;;52.78;10.88;;;;;;;;;;5067868;28;20402;-75
2021/06/30 14:51:37;;;;;;;43.75;9.32;;;;;;;;;;5068571;28;20440;-76
2021/06/30 14:54:15;;;;;;;52.90;8.45;;;;;;;;;;5068711;28;20771;-76
2021/06/30 14:56:54;;;;;;;42.30;7.97;;;;;;;;;;5108378;27;20387;-73
2021/06/30 14:59:34;;;;;;;55.55;9.40;;;;;;;;;;5108579;27;20346;-76
2021/06/30 15:02:12;;;;;;;59.45;9.25;;;;;;;;;;5128839;27;20135;-75
2021/06/30 15:04:49;;;;;;;39.35;7.82;;;;;;;;;;5108003;27;20385;-76
2021/06/30 15:07:28;;;;;;;54.13;10.23;;;;;;;;;;5169155;27;20383;-74
2021/06/30 15:10:08;;;;;;;40.75;8.57;;;;;;;;;;5068005;28;20387;-76
2021/06/30 15:12:46;;;;;;;37.42;8.55;;;;;;;;;;5107923;27;20403;-76
2021/06/30 15:15:24;;;;;;;53.13;9.60;;;;;;;;;;5068770;28;20460;-76
2021/06/30 15:18:02;;;;;;;59.00;9.00;;;;;;;;;;5067991;28;20939;-76
2021/06/30 15:20:40;;;;;;;42.47;8.07;;;;;;;;;;5088018;27;20415;-75
2021/06/30 15:23:19;;;;;;;47.15;9.68;;;;;;;;;;5067766;28;20387;-75
2021/06/30 15:25:57;;;;;;;39.97;8.65;;;;;;;;;;5067719;28;20387;-76
2021/06/30 15:28:35;;;;;;;40.97;8.48;;;;;;;;;;5108159;27;20395;-75
2021/06/30 15:31:13;;;;;;;34.22;7.18;;;;;;;;;;5108272;27;20388;-76
2021/06/30 15:33:51;;;;;;;36.45;8.48;;;;;;;;;;5088183;28;20431;-75
2021/06/30 15:36:30;;;;;;;35.20;7.68;;;;;;;;;;5149299;27;20388;-75
2021/06/30 15:39:10;;;;;;;57.78;9.63;;;;;;;;;;5067660;28;20448;-74